Time;durP1;ratioP1;P1;durP2;ratioP2;P2;SDS_P1;SDS_P2;PMS_P1;PMS_P2;Temp;Humidity;BMP_temperature;BMP_pressure;BME280_temperature;BME280_humidity;BME280_pressure;Samples;Min_cycle;Max_cycle;Signal;HPM_P1;HPM_P2
2021/01/10 00:01:53;;;;;;;20.70;10.15;;;;;;;-3.14;80.04;97870.75;4942594;29;20039;-78
2021/01/10 00:04:20;;;;;;;38.45;15.65;;;;;;;-3.11;80.21;97862.84;4964321;28;20058;-78
2021/01/10 00:06:47;;;;;;;33.00;13.75;;;;;;;-3.18;80.80;97849.06;4940236;28;20039;-78
2021/01/10 00:09:13;;;;;;;34.00;14.30;;;;;;;-3.14;80.80;97865.66;4949585;28;20031;-78
2021/01/10 00:11:43;;;;;;;59.85;23.63;;;;;;;-3.22;81.17;97867.16;4937595;28;20118;-78
2021/01/10 00:14:09;;;;;;;41.17;17.63;;;;;;;-3.20;80.87;97854.28;4952988;28;20037;-78
2021/01/10 00:16:39;;;;;;;31.63;14.27;;;;;;;-3.25;80.80;97871.72;4951500;28;20394;-78
2021/01/10 00:19:06;;;;;;;35.92;15.75;;;;;;;-3.16;81.27;97859.91;4967204;28;20038;-78
2021/01/10 00:21:36;;;;;;;28.13;12.82;;;;;;;-3.16;81.29;97854.81;4952127;28;20074;-78
2021/01/10 00:24:03;;;;;;;18.75;8.02;;;;;;;-3.09;80.13;97861.72;4947972;28;20061;-78
2021/01/10 00:26:36;;;;;;;18.05;7.63;;;;;;;-3.20;80.29;97860.19;4926316;29;20043;-78
2021/01/10 00:29:05;;;;;;;18.52;9.05;;;;;;;-3.14;80.79;97863.91;4952912;28;20487;-78
2021/01/10 00:31:31;;;;;;;15.30;6.82;;;;;;;-3.17;80.78;97855.72;4933769;29;20474;-78
2021/01/10 00:33:59;;;;;;;18.25;8.25;;;;;;;-3.12;81.00;97862.03;4932226;29;20041;-78
2021/01/10 00:36:38;;;;;;;14.05;6.88;;;;;;;-3.29;80.44;97860.19;4943554;28;20030;-78
2021/01/10 00:39:04;;;;;;;21.85;9.70;;;;;;;-3.23;81.53;97863.00;4969960;28;20082;-78
2021/01/10 00:41:39;;;;;;;23.52;9.65;;;;;;;-3.37;81.69;97852.47;4931667;29;20031;-78
2021/01/10 00:44:05;;;;;;;;;;;;;;;-3.49;82.00;97864.56;4946934;28;20070;-78
2021/01/10 00:46:32;;;;;;;19.17;7.68;;;;;;;-3.27;81.31;97860.88;4946243;28;19910;-78
2021/01/10 00:49:01;;;;;;;15.35;7.35;;;;;;;-3.25;80.75;97857.25;4945847;28;20071;-78
2021/01/10 00:51:26;;;;;;;15.07;6.85;;;;;;;-3.33;81.02;97848.69;4922964;29;20066;-78
2021/01/10 00:53:52;;;;;;;14.10;6.53;;;;;;;-3.27;81.18;97846.41;4934479;29;20062;-78
2021/01/10 00:56:19;;;;;;;13.75;5.85;;;;;;;-3.29;81.20;97861.03;4953841;28;20047;-78
2021/01/10 00:58:44;;;;;;;12.65;6.22;;;;;;;-3.31;81.22;97857.78;4934901;29;20191;-78
2021/01/10 01:01:11;;;;;;;16.00;8.18;;;;;;;-3.29;80.54;97855.94;4951541;28;20031;-78
2021/01/10 01:03:37;;;;;;;14.15;6.40;;;;;;;-3.30;80.83;97854.31;4934918;28;20114;-78
2021/01/10 01:06:04;;;;;;;12.85;6.60;;;;;;;-3.25;80.97;97861.53;4952303;28;20109;-78
2021/01/10 01:08:30;;;;;;;10.90;5.68;;;;;;;-3.26;80.50;97852.28;4921184;29;20026;-78
2021/01/10 01:10:56;;;;;;;11.35;5.22;;;;;;;-3.25;80.61;97841.97;4935457;28;20030;-78
2021/01/10 01:13:21;;;;;;;13.00;5.45;;;;;;;-3.29;81.87;97850.84;4934594;29;20564;-78
2021/01/10 01:15:53;;;;;;;16.30;7.35;;;;;;;-3.22;82.68;97853.63;4925082;28;20042;-78
2021/01/10 01:18:18;;;;;;;15.05;6.97;;;;;;;-3.17;82.23;97858.28;4940342;28;20043;-78
2021/01/10 01:20:45;;;;;;;13.77;7.13;;;;;;;-3.19;81.33;97866.06;4941796;28;20051;-78
2021/01/10 01:23:10;;;;;;;13.75;7.38;;;;;;;-3.20;81.88;97857.63;4931903;28;20031;-78
2021/01/10 01:25:39;;;;;;;13.73;7.38;;;;;;;-3.25;81.23;97867.44;4941766;28;20444;-78
2021/01/10 01:28:08;;;;;;;10.82;6.07;;;;;;;-3.26;80.89;97873.44;4934062;28;20500;-79
2021/01/10 01:30:33;;;;;;;11.40;5.60;;;;;;;-3.20;80.37;97872.13;4927255;29;20098;-78
2021/01/10 01:32:59;;;;;;;10.50;5.55;;;;;;;-3.24;80.23;97866.50;4961455;28;20505;-78
2021/01/10 01:35:25;;;;;;;11.98;5.43;;;;;;;-3.23;81.81;97868.09;4969658;28;20126;-78
2021/01/10 01:37:52;;;;;;;13.30;6.35;;;;;;;-3.22;81.55;97877.34;4952310;28;20066;-78
2021/01/10 01:40:18;;;;;;;11.60;5.75;;;;;;;-3.20;81.29;97877.22;4969882;28;20401;-78
2021/01/10 01:42:46;;;;;;;11.88;6.15;;;;;;;-3.29;80.85;97878.84;4946877;28;20098;-78
2021/01/10 01:45:12;;;;;;;15.02;6.72;;;;;;;-3.21;79.73;97881.47;4952824;28;20062;-78
2021/01/10 01:47:39;;;;;;;9.85;5.05;;;;;;;-3.20;80.08;97884.84;4922451;28;20577;-78
2021/01/10 01:50:06;;;;;;;11.18;6.20;;;;;;;-3.30;81.16;97869.59;4933526;28;20441;-78
2021/01/10 01:52:33;;;;;;;14.02;6.05;;;;;;;-3.20;81.34;97879.75;4936202;28;20369;-78
2021/01/10 01:54:59;;;;;;;13.02;6.22;;;;;;;-3.28;81.51;97866.91;4940523;28;20038;-78
2021/01/10 01:57:25;;;;;;;10.65;6.38;;;;;;;-3.27;80.02;97876.97;4905313;28;20374;-79
2021/01/10 01:59:51;;;;;;;12.95;5.88;;;;;;;-3.22;80.76;97879.88;4930409;28;20042;-78
2021/01/10 02:02:17;;;;;;;12.18;6.15;;;;;;;-3.24;80.35;97875.88;4977619;23;20062;-80
2021/01/10 02:05:07;;;;;;;11.95;5.90;;;;;;;-3.16;80.73;97885.38;4932585;29;20049;-78
2021/01/10 02:07:37;;;;;;;13.55;5.53;;;;;;;-3.35;79.93;97876.84;4937138;28;20402;-78
2021/01/10 02:10:06;;;;;;;10.82;5.10;;;;;;;-3.25;80.07;97875.06;4949737;29;20450;-78
2021/01/10 02:12:35;;;;;;;9.60;5.72;;;;;;;-3.41;80.53;97875.66;4949054;29;20035;-78
2021/01/10 02:15:08;;;;;;;11.93;5.18;;;;;;;-3.44;80.37;97875.13;4932838;29;20470;-78
2021/01/10 02:17:34;;;;;;;11.02;5.07;;;;;;;-3.32;80.58;97871.47;4917178;29;20031;-78
2021/01/10 02:20:14;;;;;;;11.82;5.07;;;;;;;-3.41;80.48;97867.19;4932691;29;20577;-78
2021/01/10 02:22:46;;;;;;;10.48;5.55;;;;;;;-3.46;80.88;97861.72;4931744;29;20073;-78
2021/01/10 02:25:12;;;;;;;10.25;5.38;;;;;;;-3.35;81.05;97865.88;4916662;29;20046;-78
2021/01/10 02:27:39;;;;;;;9.48;5.18;;;;;;;-3.35;81.33;97870.97;4933195;29;20097;-78
2021/01/10 02:30:05;;;;;;;10.55;5.50;;;;;;;-3.31;81.14;97877.38;4932253;29;20036;-78
2021/01/10 02:32:33;;;;;;;9.93;4.75;;;;;;;-3.31;81.58;97870.53;4932782;29;20074;-78
2021/01/10 02:34:59;;;;;;;9.90;5.07;;;;;;;-3.22;80.90;97866.38;4925795;29;20027;-78
2021/01/10 02:37:31;;;;;;;9.35;5.22;;;;;;;-3.29;81.09;97866.13;4931963;29;20422;-78
2021/01/10 02:40:26;;;;;;;10.35;5.30;;;;;;;-3.39;80.28;97862.78;4949792;29;20039;-78
2021/01/10 02:43:16;;;;;;;10.77;5.70;;;;;;;-3.50;80.30;97865.50;4916868;29;20486;-78
2021/01/10 02:45:42;;;;;;;9.80;5.45;;;;;;;-3.37;80.33;97863.47;4917257;29;20039;-78
2021/01/10 02:48:12;;;;;;;11.30;5.10;;;;;;;-3.45;80.46;97856.50;4932790;29;20265;-77
2021/01/10 02:50:38;;;;;;;10.40;4.80;;;;;;;-3.37;80.55;97860.91;4932494;29;20505;-78
2021/01/10 02:53:04;;;;;;;10.55;5.35;;;;;;;-3.33;80.93;97857.13;4916544;29;20031;-78
2021/01/10 02:55:30;;;;;;;9.02;4.63;;;;;;;-3.37;80.67;97853.28;4932096;29;20378;-78
2021/01/10 02:58:08;;;;;;;11.20;5.20;;;;;;;-3.54;80.24;97849.69;4932772;29;20398;-78
2021/01/10 03:00:34;;;;;;;7.85;4.43;;;;;;;-3.36;80.38;97842.13;4933082;29;20098;-78
2021/01/10 03:03:01;;;;;;;10.35;4.60;;;;;;;-3.32;79.53;97846.00;4931568;29;20137;-78
2021/01/10 03:05:29;;;;;;;10.98;4.43;;;;;;;-3.27;80.55;97840.50;4916610;29;20118;-78
2021/01/10 03:07:55;;;;;;;10.55;5.22;;;;;;;-3.17;79.91;97838.72;4932830;29;20554;-78
2021/01/10 03:10:24;;;;;;;10.55;4.70;;;;;;;-3.20;80.76;97837.25;4919440;29;20023;-78
2021/01/10 03:12:50;;;;;;;8.07;3.97;;;;;;;-3.11;79.79;97838.16;4935255;29;20493;-78
2021/01/10 03:15:16;;;;;;;10.18;4.68;;;;;;;-3.12;80.13;97836.56;4941933;29;20033;-78
2021/01/10 03:17:44;;;;;;;9.60;4.28;;;;;;;-3.15;80.04;97841.13;4935673;29;20427;-78
2021/01/10 03:20:17;;;;;;;9.73;4.63;;;;;;;-3.22;79.96;97836.59;4947043;29;20693;-78
2021/01/10 03:22:45;;;;;;;10.00;4.78;;;;;;;-3.25;79.28;97830.97;4935299;29;20114;-78
2021/01/10 03:25:14;;;;;;;12.88;5.40;;;;;;;-3.33;79.29;97841.06;4918553;29;20027;-78
2021/01/10 03:27:40;;;;;;;8.48;4.80;;;;;;;-3.39;79.07;97844.97;4935231;29;20050;-78
2021/01/10 03:30:07;;;;;;;8.35;5.38;;;;;;;-3.50;79.65;97832.41;4935618;29;20110;-78
2021/01/10 03:32:33;;;;;;;9.10;4.60;;;;;;;-3.50;79.61;97837.50;4903269;29;20038;-78
2021/01/10 03:34:59;;;;;;;8.80;4.93;;;;;;;-3.46;81.21;97838.81;4935520;29;20398;-78
2021/01/10 03:37:25;;;;;;;8.40;4.20;;;;;;;-3.45;80.99;97835.34;4935227;29;20027;-78
2021/01/10 03:39:52;;;;;;;10.48;4.60;;;;;;;-3.48;79.99;97841.53;4935418;29;20027;-78
2021/01/10 03:42:18;;;;;;;9.15;4.80;;;;;;;-3.57;80.23;97838.03;4935484;29;20049;-78
2021/01/10 03:44:44;;;;;;;10.90;5.10;;;;;;;-3.58;80.77;97839.00;4920139;29;20057;-78
2021/01/10 03:47:10;;;;;;;13.07;5.80;;;;;;;-3.61;80.96;97841.81;4935199;29;20363;-78
2021/01/10 03:49:35;;;;;;;11.65;4.95;;;;;;;-3.62;80.78;97841.94;4935201;29;20065;-79
2021/01/10 03:52:01;;;;;;;10.07;4.93;;;;;;;-3.62;79.36;97842.72;4935231;29;20114;-78
2021/01/10 03:54:27;;;;;;;10.65;5.72;;;;;;;-3.61;80.68;97846.91;4934575;29;20039;-78
2021/01/10 03:56:53;;;;;;;12.15;5.10;;;;;;;-3.54;80.95;97842.06;4935490;29;20454;-78
2021/01/10 03:59:18;;;;;;;10.30;4.43;;;;;;;-3.55;80.74;97843.00;4935334;29;20035;-78
2021/01/10 04:01:44;;;;;;;10.45;4.43;;;;;;;-3.71;80.52;97840.22;4918725;28;20063;-78
2021/01/10 04:04:10;;;;;;;10.68;4.60;;;;;;;-3.64;81.18;97848.91;4935063;29;20086;-78
2021/01/10 04:06:36;;;;;;;11.52;5.40;;;;;;;-3.69;80.85;97851.88;4918945;29;20560;-78
2021/01/10 04:09:02;;;;;;;8.27;4.32;;;;;;;-3.64;80.64;97851.47;4920617;29;20035;-78
2021/01/10 04:11:29;;;;;;;9.93;4.45;;;;;;;-3.64;80.43;97844.63;4952224;29;20031;-78
2021/01/10 04:13:54;;;;;;;9.10;4.50;;;;;;;-3.66;80.00;97849.06;4934847;29;20034;-78
2021/01/10 04:16:20;;;;;;;10.88;4.63;;;;;;;-3.69;80.09;97844.22;4897414;29;20423;-78
2021/01/10 04:18:45;;;;;;;9.20;4.60;;;;;;;-3.80;79.56;97831.69;4951947;28;20039;-78
2021/01/10 04:21:13;;;;;;;12.55;5.13;;;;;;;-3.91;80.16;97839.44;4904090;29;20031;-78
2021/01/10 04:23:39;;;;;;;9.35;5.13;;;;;;;-3.99;80.32;97835.84;4918257;29;20032;-78
2021/01/10 04:26:07;;;;;;;10.63;4.43;;;;;;;-4.00;80.85;97834.22;4934721;29;20036;-78
2021/01/10 04:28:33;;;;;;;9.25;4.53;;;;;;;-4.01;80.08;97829.28;4934806;29;20074;-78
2021/01/10 04:31:02;;;;;;;7.32;3.80;;;;;;;-4.05;79.73;97835.59;4918157;29;20039;-78
2021/01/10 04:33:28;;;;;;;9.60;4.43;;;;;;;-4.04;80.01;97825.28;4934401;29;20023;-78
2021/01/10 04:35:54;;;;;;;8.32;3.65;;;;;;;-4.01;79.51;97829.28;4934742;29;20042;-78
2021/01/10 04:38:20;;;;;;;9.48;4.25;;;;;;;-4.08;79.57;97818.03;4929289;29;20466;-78
2021/01/10 04:40:47;;;;;;;8.80;4.15;;;;;;;-4.11;79.43;97821.69;4951285;29;20027;-78
2021/01/10 04:43:14;;;;;;;9.48;4.25;;;;;;;-4.16;79.80;97826.38;4934577;29;20725;-78
2021/01/10 04:45:40;;;;;;;8.40;4.20;;;;;;;-4.22;79.02;97822.59;4933850;29;20063;-78
2021/01/10 04:48:07;;;;;;;8.77;3.75;;;;;;;-4.25;79.25;97822.06;4934428;29;20031;-78
2021/01/10 04:50:34;;;;;;;8.65;4.10;;;;;;;-4.28;80.34;97827.41;4934797;29;20338;-78
2021/01/10 04:53:01;;;;;;;8.82;4.05;;;;;;;-4.28;80.13;97827.41;4934189;29;20028;-78
2021/01/10 04:55:31;;;;;;;7.38;3.83;;;;;;;-4.34;79.82;97831.31;4933666;29;20035;-78
2021/01/10 04:58:02;;;;;;;8.82;4.35;;;;;;;-4.33;80.70;97833.72;4934495;29;20382;-78
2021/01/10 05:00:29;;;;;;;14.05;5.35;;;;;;;-4.30;79.96;97830.13;4934070;29;20176;-78
2021/01/10 05:03:07;;;;;;;9.50;4.25;;;;;;;-4.40;80.15;97834.41;4916815;29;20093;-78
2021/01/10 05:05:39;;;;;;;9.18;4.68;;;;;;;-4.40;80.23;97834.41;4928753;29;20051;-78
2021/01/10 05:08:10;;;;;;;7.65;3.97;;;;;;;-4.36;79.90;97840.81;4951646;29;20118;-78
2021/01/10 05:10:38;;;;;;;8.63;4.50;;;;;;;-4.35;79.16;97838.13;4933824;29;20102;-78
2021/01/10 05:13:05;;;;;;;11.30;4.45;;;;;;;-4.31;79.90;97845.50;4951268;29;20047;-78
2021/01/10 05:15:32;;;;;;;10.15;4.85;;;;;;;-4.39;80.05;97836.78;4934024;29;20062;-78
2021/01/10 05:17:58;;;;;;;8.27;3.85;;;;;;;-4.45;79.33;97839.88;4933380;29;20031;-78
2021/01/10 05:20:30;;;;;;;7.00;3.70;;;;;;;-4.55;79.30;97833.97;4934205;29;20067;-78
2021/01/10 05:22:57;;;;;;;9.00;4.28;;;;;;;-4.53;79.75;97827.81;4950554;29;20609;-78
2021/01/10 05:25:23;;;;;;;9.07;4.00;;;;;;;-4.46;79.79;97845.88;4933504;29;20077;-78
2021/01/10 05:27:52;;;;;;;7.70;3.58;;;;;;;-4.62;79.99;97848.94;4934011;29;20117;-78
2021/01/10 05:30:29;;;;;;;8.63;3.63;;;;;;;-4.81;80.31;97854.00;4933830;29;20027;-78
2021/01/10 05:33:06;;;;;;;10.63;4.57;;;;;;;-4.81;80.38;97857.31;4932697;29;20023;-79
2021/01/10 05:35:52;;;;;;;8.20;4.18;;;;;;;-4.84;80.05;97849.97;4933900;29;20031;-79
2021/01/10 05:38:29;;;;;;;8.23;4.05;;;;;;;-4.86;80.86;97854.38;4928613;29;20027;-79
2021/01/10 05:40:57;;;;;;;9.98;4.28;;;;;;;-4.76;80.74;97857.75;4912911;29;20035;-78
2021/01/10 05:43:24;;;;;;;8.73;4.03;;;;;;;-4.70;81.23;97849.56;4933117;29;20024;-78
2021/01/10 05:45:53;;;;;;;9.30;4.38;;;;;;;-4.65;81.23;97846.66;4934001;29;20038;-78
2021/01/10 05:48:19;;;;;;;8.82;4.43;;;;;;;-4.66;80.91;97837.44;4917118;29;20039;-78
2021/01/10 05:50:50;;;;;;;12.10;4.80;;;;;;;-4.81;81.48;97847.16;4934095;29;20377;-78
2021/01/10 05:53:17;;;;;;;8.45;4.18;;;;;;;-4.79;80.88;97844.50;4933338;29;20083;-78
2021/01/10 05:55:54;;;;;;;8.65;4.18;;;;;;;-4.90;80.59;97851.28;4932747;29;20192;-78
2021/01/10 05:58:21;;;;;;;9.10;4.05;;;;;;;-4.87;79.73;97846.88;4933395;29;20040;-78
2021/01/10 06:00:49;;;;;;;9.38;4.57;;;;;;;-4.92;81.11;97849.81;4916186;29;20086;-78
2021/01/10 06:03:16;;;;;;;9.85;4.72;;;;;;;-4.84;81.00;97851.72;4902989;29;20125;-78
2021/01/10 06:05:55;;;;;;;9.82;4.68;;;;;;;-4.93;81.07;97845.66;4916582;29;20105;-78
2021/01/10 06:08:33;;;;;;;10.77;4.95;;;;;;;-4.92;80.48;97854.88;4915629;29;20061;-78
2021/01/10 06:11:20;;;;;;;10.20;4.20;;;;;;;-4.96;81.00;97856.88;4931782;29;20042;-78
2021/01/10 06:13:59;;;;;;;9.18;4.38;;;;;;;-4.98;79.88;97850.34;4932237;29;20496;-78
2021/01/10 06:16:27;;;;;;;10.23;4.68;;;;;;;-4.94;80.44;97859.28;4910851;29;20031;-78
2021/01/10 06:18:56;;;;;;;9.90;4.78;;;;;;;-4.98;80.91;97863.81;4915951;29;20035;-78
2021/01/10 06:21:29;;;;;;;9.27;4.35;;;;;;;-5.08;81.12;97855.38;4932564;29;20039;-78
2021/01/10 06:23:57;;;;;;;10.90;5.18;;;;;;;-5.04;81.10;97854.16;4912526;29;20047;-78
2021/01/10 06:26:25;;;;;;;9.02;4.40;;;;;;;-4.92;81.91;97857.41;4929852;29;20031;-78
2021/01/10 06:29:06;;;;;;;10.95;5.00;;;;;;;-4.99;81.73;97863.94;4932314;29;20031;-78
2021/01/10 06:31:35;;;;;;;10.77;5.10;;;;;;;-4.89;80.83;97869.88;4931617;29;20113;-78
2021/01/10 06:34:10;;;;;;;11.88;4.97;;;;;;;-5.01;80.51;97865.81;4932291;29;20077;-78
2021/01/10 06:36:44;;;;;;;11.25;4.85;;;;;;;-5.11;80.58;97855.63;4927169;29;20044;-79
2021/01/10 06:39:14;;;;;;;11.35;5.55;;;;;;;-5.07;81.49;97859.53;4933196;29;20470;-78
2021/01/10 06:42:05;;;;;;;10.77;5.53;;;;;;;-5.12;82.07;97857.38;4932609;28;20035;-79
2021/01/10 06:44:51;;;;;;;11.27;5.43;;;;;;;-5.13;82.02;97860.81;4920866;29;20039;-79
2021/01/10 06:47:22;;;;;;;15.55;7.18;;;;;;;-4.96;81.85;97863.69;4915383;29;20160;-78
2021/01/10 06:49:49;;;;;;;16.98;7.80;;;;;;;-4.84;81.04;97859.31;4937048;29;20522;-78
2021/01/10 06:52:18;;;;;;;16.33;7.60;;;;;;;-4.92;81.86;97853.16;4936398;29;20035;-79
2021/01/10 06:54:46;;;;;;;14.07;6.25;;;;;;;-4.89;80.97;97857.16;4936366;29;20369;-78
2021/01/10 06:57:13;;;;;;;11.70;5.90;;;;;;;-4.86;81.53;97856.91;4936394;29;20041;-78
2021/01/10 07:00:08;;;;;;;11.02;6.07;;;;;;;-5.02;81.42;97857.41;4936809;29;20062;-79
2021/01/10 07:03:06;;;;;;;13.32;6.30;;;;;;;-4.97;82.36;97857.00;4935893;29;20079;-78
2021/01/10 07:06:11;;;;;;;13.48;7.13;;;;;;;-4.84;82.44;97857.59;4936581;29;20122;-78
2021/01/10 07:08:42;;;;;;;15.15;7.40;;;;;;;-4.74;81.98;97857.63;4919507;29;20023;-79
2021/01/10 07:11:23;;;;;;;14.60;7.10;;;;;;;-4.83;80.59;97859.19;4936447;29;20047;-78
2021/01/10 07:13:51;;;;;;;15.65;7.85;;;;;;;-4.86;80.37;97856.91;4953186;29;20039;-79
2021/01/10 07:16:24;;;;;;;35.45;17.15;;;;;;;-5.01;80.27;97863.28;4935938;29;20027;-78
2021/01/10 07:18:54;;;;;;;14.43;6.55;;;;;;;-5.00;80.32;97855.53;4936249;29;20037;-78
2021/01/10 07:21:35;;;;;;;13.07;5.82;;;;;;;-5.12;80.46;97854.81;4907989;29;20038;-78
2021/01/10 07:24:16;;;;;;;11.73;6.35;;;;;;;-5.08;81.31;97856.16;4952410;29;20035;-79
2021/01/10 07:26:55;;;;;;;16.73;7.70;;;;;;;-5.10;81.24;97863.13;4953535;29;20390;-78
2021/01/10 07:29:30;;;;;;;22.52;11.05;;;;;;;-5.17;80.68;97856.16;4935782;29;20098;-78
2021/01/10 07:32:01;;;;;;;20.67;11.20;;;;;;;-5.19;80.99;97855.44;4934827;29;20031;-78
2021/01/10 07:34:27;;;;;;;19.73;10.27;;;;;;;-5.20;81.49;97852.13;4935706;29;20474;-78
2021/01/10 07:36:54;;;;;;;22.13;13.35;;;;;;;-5.22;81.41;97848.91;4915094;29;20520;-78
2021/01/10 07:39:23;;;;;;;16.38;9.13;;;;;;;-5.16;81.07;97856.00;4934929;29;20035;-78
2021/01/10 07:41:49;;;;;;;15.10;7.45;;;;;;;-5.02;82.11;97854.03;4935340;29;20051;-78
2021/01/10 07:44:17;;;;;;;20.88;10.25;;;;;;;-4.92;82.38;97858.25;4952982;29;20363;-78
2021/01/10 07:46:49;;;;;;;24.83;11.57;;;;;;;-4.96;82.57;97856.09;4934651;29;20086;-78
2021/01/10 07:49:23;;;;;;;20.67;10.77;;;;;;;-4.93;82.25;97860.91;4935719;29;20066;-79
2021/01/10 07:51:49;;;;;;;34.50;16.02;;;;;;;-4.85;81.30;97871.19;4935553;29;20053;-78
2021/01/10 07:54:15;;;;;;;53.58;23.45;;;;;;;-4.83;80.99;97868.53;4934304;29;20035;-78
2021/01/10 07:56:40;;;;;;;32.25;16.30;;;;;;;-4.72;80.49;97865.91;4919396;29;20067;-78
2021/01/10 07:59:13;;;;;;;20.52;12.75;;;;;;;-4.85;80.20;97870.41;4935525;29;20438;-79
2021/01/10 08:01:51;;;;;;;54.80;23.45;;;;;;;-4.94;80.76;97870.25;4951279;28;20439;-79
2021/01/10 08:04:32;;;;;;;46.10;17.77;;;;;;;-4.87;81.16;97872.28;4935182;29;20134;-79
2021/01/10 08:07:08;;;;;;;28.17;12.05;;;;;;;-4.61;81.19;97870.88;4935287;29;20043;-78
2021/01/10 08:09:44;;;;;;;24.60;10.32;;;;;;;-4.52;80.98;97877.72;4933534;29;20039;-79
2021/01/10 08:12:10;;;;;;;19.90;10.15;;;;;;;-4.50;81.10;97869.97;4952161;29;20035;-79
2021/01/10 08:14:36;;;;;;;27.05;11.27;;;;;;;-4.36;81.63;97874.66;4952462;29;20035;-79
2021/01/10 08:17:02;;;;;;;28.27;13.85;;;;;;;-4.33;81.18;97876.13;4921649;29;20047;-79
2021/01/10 08:19:28;;;;;;;30.83;15.40;;;;;;;-4.31;81.68;97883.63;4919822;29;20529;-79
2021/01/10 08:21:54;;;;;;;30.25;14.82;;;;;;;-4.24;81.40;97884.72;4918909;29;20110;-79
2021/01/10 08:24:19;;;;;;;78.80;35.33;;;;;;;-4.26;81.20;97886.59;4902865;29;20031;-78
2021/01/10 08:26:45;;;;;;;41.47;21.08;;;;;;;-4.33;81.20;97886.31;4935149;29;20086;-78
2021/01/10 08:29:11;;;;;;;24.15;14.75;;;;;;;-4.27;80.93;97885.75;4935261;29;20086;-79
2021/01/10 08:31:38;;;;;;;16.58;8.93;;;;;;;-4.27;81.22;97885.75;4918064;29;20030;-78
2021/01/10 08:34:05;;;;;;;18.30;9.02;;;;;;;-4.20;80.83;97884.31;4935231;29;20058;-78
2021/01/10 08:36:32;;;;;;;20.20;12.45;;;;;;;-4.05;81.20;97894.88;4928642;29;20108;-79
2021/01/10 08:39:00;;;;;;;17.77;9.10;;;;;;;-4.01;81.17;97886.06;4934300;29;20027;-78
2021/01/10 08:41:42;;;;;;;22.88;10.48;;;;;;;-4.06;81.28;97888.19;4912365;29;20050;-78
2021/01/10 08:44:12;;;;;;;19.90;10.23;;;;;;;-3.90;81.02;97897.03;4898107;29;20549;-78
2021/01/10 08:46:40;;;;;;;22.63;9.68;;;;;;;-3.75;81.14;97898.22;4951234;29;20055;-79
2021/01/10 08:49:06;;;;;;;19.67;9.43;;;;;;;-3.55;80.67;97899.00;4901585;29;20047;-79
2021/01/10 08:51:37;;;;;;;15.82;8.40;;;;;;;-3.57;80.21;97906.75;4919022;29;20046;-79
2021/01/10 08:54:08;;;;;;;23.67;13.23;;;;;;;-3.62;80.08;97906.34;4934496;29;20027;-79
2021/01/10 08:56:34;;;;;;;23.75;15.25;;;;;;;-3.61;80.55;97891.91;4931199;29;20031;-79
2021/01/10 08:59:00;;;;;;;24.40;14.43;;;;;;;-3.52;80.69;97901.25;4934422;29;20413;-79
2021/01/10 09:01:27;;;;;;;23.30;14.25;;;;;;;-3.58;80.63;97896.75;4934142;29;20031;-79
2021/01/10 09:04:06;;;;;;;27.55;15.18;;;;;;;-3.64;80.96;97902.34;4933418;29;20035;-79
2021/01/10 09:06:35;;;;;;;19.30;12.27;;;;;;;-3.47;81.26;97903.41;4933265;29;20503;-79
2021/01/10 09:09:24;;;;;;;20.55;11.70;;;;;;;-3.52;80.82;97908.91;4931146;29;20081;-79
2021/01/10 09:12:06;;;;;;;18.83;10.23;;;;;;;-3.45;80.54;97909.16;4918187;29;20039;-79
2021/01/10 09:14:42;;;;;;;16.58;8.02;;;;;;;-3.34;80.98;97906.47;4934096;29;20033;-79
2021/01/10 09:17:09;;;;;;;16.85;9.60;;;;;;;-3.18;81.03;97903.34;4933328;29;20039;-79
2021/01/10 09:19:36;;;;;;;13.68;8.55;;;;;;;-3.00;81.13;97908.50;4934029;29;20434;-79
2021/01/10 09:22:02;;;;;;;15.93;8.80;;;;;;;-2.91;81.12;97900.03;4933387;29;20520;-79
2021/01/10 09:24:31;;;;;;;21.42;9.98;;;;;;;-2.84;80.83;97916.34;4950274;29;20526;-79
2021/01/10 09:27:11;;;;;;;20.38;12.20;;;;;;;-3.01;80.70;97922.97;4902504;29;20094;-79
2021/01/10 09:29:37;;;;;;;24.17;15.35;;;;;;;-2.80;81.27;97924.50;4933962;29;20114;-79
2021/01/10 09:32:03;;;;;;;22.27;11.55;;;;;;;-2.70;80.38;97927.81;4933310;29;20371;-79
2021/01/10 09:34:29;;;;;;;21.92;12.30;;;;;;;-2.66;80.37;97923.25;4917794;29;20039;-79
2021/01/10 09:37:03;;;;;;;25.38;13.57;;;;;;;-2.73;80.82;97920.44;4950615;29;20046;-79
2021/01/10 09:39:43;;;;;;;28.50;14.90;;;;;;;-2.68;80.87;97920.03;4933088;29;20062;-79
2021/01/10 09:42:09;;;;;;;21.88;12.45;;;;;;;-2.48;80.74;97919.00;4917478;29;20049;-80
2021/01/10 09:44:35;;;;;;;18.88;11.30;;;;;;;-2.35;80.16;97926.28;4917341;29;20031;-79
2021/01/10 09:47:02;;;;;;;18.98;11.73;;;;;;;-2.32;80.32;97926.00;4932699;29;20081;-79
2021/01/10 09:49:31;;;;;;;19.85;10.15;;;;;;;-2.28;79.93;97916.31;4933905;29;20505;-80
2021/01/10 09:51:59;;;;;;;16.77;9.90;;;;;;;-2.18;80.41;97931.56;4917926;29;20031;-80
2021/01/10 09:54:26;;;;;;;16.50;10.38;;;;;;;-2.15;79.48;97929.53;4932992;29;20027;-80
2021/01/10 09:56:54;;;;;;;24.45;13.93;;;;;;;-2.18;79.43;97934.13;4932954;29;20375;-80
2021/01/10 09:59:40;;;;;;;18.35;10.60;;;;;;;-2.23;79.59;97929.44;4914398;29;20032;-80
2021/01/10 10:02:08;;;;;;;;;;;;;;;-2.33;79.86;97932.06;4932715;29;20118;-80
2021/01/10 10:04:34;;;;;;;14.50;8.60;;;;;;;-1.97;79.82;97924.44;4933062;29;19953;-80
2021/01/10 10:07:00;;;;;;;16.48;7.93;;;;;;;-1.90;80.29;97924.66;4901407;29;20050;-81
2021/01/10 10:09:52;;;;;;;12.90;6.97;;;;;;;-2.04;79.37;97914.94;4932974;29;20346;-81
2021/01/10 10:12:23;;;;;;;14.63;7.28;;;;;;;-1.79;79.15;97914.22;4930835;29;20023;-81
2021/01/10 10:14:56;;;;;;;13.55;7.10;;;;;;;-1.79;79.26;97915.97;4917687;29;20117;-81
2021/01/10 10:17:27;;;;;;;14.73;7.40;;;;;;;-1.83;79.28;97904.44;4917966;29;20367;-81
2021/01/10 10:19:55;;;;;;;18.75;8.45;;;;;;;-1.71;79.15;97909.19;4918036;29;20031;-81
2021/01/10 10:22:22;;;;;;;14.50;7.93;;;;;;;-1.64;79.43;97914.50;4936944;29;20058;-81
2021/01/10 10:24:48;;;;;;;13.48;6.90;;;;;;;-1.56;78.71;97914.56;4936328;29;20075;-81
2021/01/10 10:27:13;;;;;;;12.20;7.07;;;;;;;-1.59;78.91;97908.97;4920853;29;20046;-82
2021/01/10 10:29:39;;;;;;;11.40;6.13;;;;;;;-1.63;79.12;97898.22;4910167;29;20043;-82
2021/01/10 10:32:06;;;;;;;11.23;6.05;;;;;;;-1.53;79.03;97910.91;4934795;29;20353;-82
2021/01/10 10:34:32;;;;;;;11.82;6.30;;;;;;;-1.61;79.43;97913.38;4919762;29;20039;-82
2021/01/10 10:36:59;;;;;;;12.07;6.18;;;;;;;-1.63;78.85;97903.31;4932544;29;20050;-82
2021/01/10 10:39:25;;;;;;;12.40;6.55;;;;;;;-1.52;79.20;97904.84;4936415;29;20031;-82
2021/01/10 10:41:51;;;;;;;14.20;6.95;;;;;;;-1.56;79.04;97903.53;4935899;29;20504;-83
2021/01/10 10:44:16;;;;;;;11.80;6.40;;;;;;;-1.47;79.16;97899.28;4920669;29;20023;-82
2021/01/10 10:46:42;;;;;;;12.63;5.75;;;;;;;-1.46;78.67;97894.03;4936330;29;20037;-82
2021/01/10 10:49:08;;;;;;;12.85;6.50;;;;;;;-1.35;78.73;97906.56;4935896;29;20035;-82
2021/01/10 10:51:34;;;;;;;10.95;5.13;;;;;;;-1.27;78.40;97908.34;4935983;29;20023;-82
2021/01/10 10:54:00;;;;;;;12.05;6.45;;;;;;;-1.28;78.20;97901.66;4936602;29;20398;-82
2021/01/10 10:56:42;;;;;;;14.15;7.03;;;;;;;-1.42;78.41;97905.56;4935820;29;20442;-82
2021/01/10 10:59:08;;;;;;;13.05;7.10;;;;;;;-1.28;78.45;97893.19;4953450;29;20042;-82
2021/01/10 11:01:41;;;;;;;14.80;8.95;;;;;;;-1.21;78.66;97904.41;4909963;29;20383;-82
2021/01/10 11:04:07;;;;;;;13.75;7.05;;;;;;;-1.06;77.35;97900.34;4919798;29;20045;-82
2021/01/10 11:06:34;;;;;;;12.95;6.90;;;;;;;-1.02;77.59;97905.94;4920476;29;20486;-82
2021/01/10 11:09:01;;;;;;;10.23;5.38;;;;;;;-1.00;77.34;97884.38;4935866;29;20035;-82
2021/01/10 11:11:43;;;;;;;11.77;6.57;;;;;;;-1.07;77.13;97893.63;4916030;28;20032;-82
2021/01/10 11:14:09;;;;;;;14.82;7.60;;;;;;;-0.84;77.46;97885.41;4935453;29;20031;-82
2021/01/10 11:16:37;;;;;;;14.02;8.52;;;;;;;-0.82;77.39;97879.19;4935137;29;20057;-82
2021/01/10 11:19:06;;;;;;;14.05;7.25;;;;;;;-0.69;77.17;97886.41;4935313;29;20256;-83
2021/01/10 11:21:39;;;;;;;12.52;6.68;;;;;;;-0.73;76.74;97887.69;4934905;29;20059;-83
2021/01/10 11:24:08;;;;;;;23.30;14.30;;;;;;;-0.72;76.14;97883.38;4935604;29;20495;-83
2021/01/10 11:26:35;;;;;;;10.73;5.15;;;;;;;-0.58;75.65;97875.91;4934944;29;20098;-83
2021/01/10 11:29:04;;;;;;;9.60;5.90;;;;;;;-0.51;76.12;97875.31;4917389;29;20034;-82
2021/01/10 11:31:33;;;;;;;12.60;7.85;;;;;;;-0.43;75.55;97875.28;4929686;29;20090;-83
2021/01/10 11:34:10;;;;;;;11.77;7.80;;;;;;;-0.77;75.39;97871.06;4919439;29;20019;-83
2021/01/10 11:36:41;;;;;;;11.23;6.70;;;;;;;-0.75;75.59;97866.59;4931354;29;20039;-83
2021/01/10 11:39:06;;;;;;;9.05;4.88;;;;;;;-0.60;75.46;97861.66;4935407;29;20361;-83